sensor_id;sensor_type;location;lat;lon;timestamp;temperature;humidity
13172;DHT22;6651;53.200;10.432;2023-10-09T00:02:08;11.70;99.90
13172;DHT22;6651;53.200;10.432;2023-10-09T00:04:35;11.70;99.90
13172;DHT22;6651;53.200;10.432;2023-10-09T00:07:05;11.60;99.90
13172;DHT22;6651;53.200;10.432;2023-10-09T00:09:36;11.50;99.90
13172;DHT22;6651;53.200;10.432;2023-10-09T00:12:17;11.60;99.90
13172;DHT22;6651;53.200;10.432;2023-10-09T00:14:48;11.60;99.90
13172;DHT22;6651;53.200;10.432;2023-10-09T00:17:16;11.60;99.90
13172;DHT22;6651;53.200;10.432;2023-10-09T00:19:46;11.60;99.90
13172;DHT22;6651;53.200;10.432;2023-10-09T00:22:25;11.60;99.90
13172;DHT22;6651;53.200;10.432;2023-10-09T00:24:56;11.60;99.90
13172;DHT22;6651;53.200;10.432;2023-10-09T00:27:43;11.60;99.90
13172;DHT22;6651;53.200;10.432;2023-10-09T00:30:13;11.60;99.90
13172;DHT22;6651;53.200;10.432;2023-10-09T00:32:55;11.60;99.90
13172;DHT22;6651;53.200;10.432;2023-10-09T00:35:23;11.60;99.90
13172;DHT22;6651;53.200;10.432;2023-10-09T00:38:07;11.60;99.90
13172;DHT22;6651;53.200;10.432;2023-10-09T00:40:45;11.60;99.90
13172;DHT22;6651;53.200;10.432;2023-10-09T00:43:14;11.70;99.90
13172;DHT22;6651;53.200;10.432;2023-10-09T00:45:43;11.70;99.90
13172;DHT22;6651;53.200;10.432;2023-10-09T00:48:10;11.60;99.90
13172;DHT22;6651;53.200;10.432;2023-10-09T00:50:39;11.60;99.90
13172;DHT22;6651;53.200;10.432;2023-10-09T00:53:13;11.60;99.90
13172;DHT22;6651;53.200;10.432;2023-10-09T00:55:43;11.60;99.90
13172;DHT22;6651;53.200;10.432;2023-10-09T00:58:14;11.70;99.90
13172;DHT22;6651;53.200;10.432;2023-10-09T01:00:50;11.80;99.90
13172;DHT22;6651;53.200;10.432;2023-10-09T01:03:19;11.80;99.90
13172;DHT22;6651;53.200;10.432;2023-10-09T01:05:51;11.80;99.90
13172;DHT22;6651;53.200;10.432;2023-10-09T01:08:42;11.70;99.90
13172;DHT22;6651;53.200;10.432;2023-10-09T01:13:55;11.60;99.90
13172;DHT22;6651;53.200;10.432;2023-10-09T01:16:37;11.50;99.90
13172;DHT22;6651;53.200;10.432;2023-10-09T01:19:03;11.50;99.90
13172;DHT22;6651;53.200;10.432;2023-10-09T01:21:38;11.50;99.90
13172;DHT22;6651;53.200;10.432;2023-10-09T01:24:05;11.40;99.90
13172;DHT22;6651;53.200;10.432;2023-10-09T01:26:34;11.40;99.90
13172;DHT22;6651;53.200;10.432;2023-10-09T01:29:14;11.30;99.90
13172;DHT22;6651;53.200;10.432;2023-10-09T01:31:45;11.30;99.90
13172;DHT22;6651;53.200;10.432;2023-10-09T01:36:52;11.30;99.90
13172;DHT22;6651;53.200;10.432;2023-10-09T01:39:22;11.30;99.90
13172;DHT22;6651;53.200;10.432;2023-10-09T01:41:52;11.20;99.90
13172;DHT22;6651;53.200;10.432;2023-10-09T01:44:27;11.10;99.90
13172;DHT22;6651;53.200;10.432;2023-10-09T01:46:55;11.10;99.90
13172;DHT22;6651;53.200;10.432;2023-10-09T01:49:23;11.00;99.90
13172;DHT22;6651;53.200;10.432;2023-10-09T01:51:57;11.00;99.90
13172;DHT22;6651;53.200;10.432;2023-10-09T01:54:29;11.00;99.90
13172;DHT22;6651;53.200;10.432;2023-10-09T01:57:02;11.00;99.90
13172;DHT22;6651;53.200;10.432;2023-10-09T01:59:38;11.00;99.90
13172;DHT22;6651;53.200;10.432;2023-10-09T02:02:06;11.00;99.90
13172;DHT22;6651;53.200;10.432;2023-10-09T02:05:05;11.00;99.90
13172;DHT22;6651;53.200;10.432;2023-10-09T02:07:35;11.00;99.90
13172;DHT22;6651;53.200;10.432;2023-10-09T02:10:10;10.90;99.90
13172;DHT22;6651;53.200;10.432;2023-10-09T02:15:29;10.90;99.90
13172;DHT22;6651;53.200;10.432;2023-10-09T02:33:14;10.90;99.90
13172;DHT22;6651;53.200;10.432;2023-10-09T02:35:44;10.80;99.90
13172;DHT22;6651;53.200;10.432;2023-10-09T02:38:10;10.70;99.90
13172;DHT22;6651;53.200;10.432;2023-10-09T02:40:43;10.70;99.90
13172;DHT22;6651;53.200;10.432;2023-10-09T02:43:28;10.70;99.90
13172;DHT22;6651;53.200;10.432;2023-10-09T02:46:00;10.70;99.90
13172;DHT22;6651;53.200;10.432;2023-10-09T02:48:35;10.70;99.90
13172;DHT22;6651;53.200;10.432;2023-10-09T02:51:01;10.70;99.90
13172;DHT22;6651;53.200;10.432;2023-10-09T02:53:28;10.70;99.90
13172;DHT22;6651;53.200;10.432;2023-10-09T02:56:00;10.70;99.90
13172;DHT22;6651;53.200;10.432;2023-10-09T02:58:39;10.70;99.90
13172;DHT22;6651;53.200;10.432;2023-10-09T03:01:10;10.70;99.90
13172;DHT22;6651;53.200;10.432;2023-10-09T03:03:39;10.70;99.90
13172;DHT22;6651;53.200;10.432;2023-10-09T05:11:22;10.60;99.90
13172;DHT22;6651;53.200;10.432;2023-10-09T05:14:19;10.20;99.90
13172;DHT22;6651;53.200;10.432;2023-10-09T05:16:53;10.10;99.90
13172;DHT22;6651;53.200;10.432;2023-10-09T05:19:26;10.10;99.90
13172;DHT22;6651;53.200;10.432;2023-10-09T05:21:55;10.20;99.90
13172;DHT22;6651;53.200;10.432;2023-10-09T05:24:24;10.10;99.90
13172;DHT22;6651;53.200;10.432;2023-10-09T05:26:52;10.20;99.90
13172;DHT22;6651;53.200;10.432;2023-10-09T05:31:49;10.10;99.90
13172;DHT22;6651;53.200;10.432;2023-10-09T05:34:24;10.10;99.90
13172;DHT22;6651;53.200;10.432;2023-10-09T05:37:00;10.10;99.90
13172;DHT22;6651;53.200;10.432;2023-10-09T05:39:45;10.10;99.90
13172;DHT22;6651;53.200;10.432;2023-10-09T05:42:32;10.10;99.90
13172;DHT22;6651;53.200;10.432;2023-10-09T05:47:50;10.10;99.90
13172;DHT22;6651;53.200;10.432;2023-10-09T05:50:34;10.10;99.90
13172;DHT22;6651;53.200;10.432;2023-10-09T05:53:01;10.10;99.90
13172;DHT22;6651;53.200;10.432;2023-10-09T05:55:29;10.10;99.90
13172;DHT22;6651;53.200;10.432;2023-10-09T05:58:13;10.10;99.90
13172;DHT22;6651;53.200;10.432;2023-10-09T06:00:58;10.20;99.90
13172;DHT22;6651;53.200;10.432;2023-10-09T06:03:42;10.10;99.90
13172;DHT22;6651;53.200;10.432;2023-10-09T06:06:23;10.10;99.90
13172;DHT22;6651;53.200;10.432;2023-10-09T06:09:07;10.10;99.90
13172;DHT22;6651;53.200;10.432;2023-10-09T06:11:39;10.10;99.90
13172;DHT22;6651;53.200;10.432;2023-10-09T06:14:05;10.10;99.90
13172;DHT22;6651;53.200;10.432;2023-10-09T06:16:41;10.20;99.90
13172;DHT22;6651;53.200;10.432;2023-10-09T06:19:12;10.10;99.90
13172;DHT22;6651;53.200;10.432;2023-10-09T06:21:38;10.10;99.90
13172;DHT22;6651;53.200;10.432;2023-10-09T06:24:08;10.10;99.90
13172;DHT22;6651;53.200;10.432;2023-10-09T06:26:34;10.20;99.90
13172;DHT22;6651;53.200;10.432;2023-10-09T06:28:59;10.30;99.90
13172;DHT22;6651;53.200;10.432;2023-10-09T06:31:40;10.30;99.90
13172;DHT22;6651;53.200;10.432;2023-10-09T06:34:28;10.40;99.90
13172;DHT22;6651;53.200;10.432;2023-10-09T06:37:00;10.30;99.90
13172;DHT22;6651;53.200;10.432;2023-10-09T06:39:43;10.30;99.90
13172;DHT22;6651;53.200;10.432;2023-10-09T06:42:21;10.30;99.90
13172;DHT22;6651;53.200;10.432;2023-10-09T06:45:02;10.30;99.90
13172;DHT22;6651;53.200;10.432;2023-10-09T06:47:32;10.30;99.90
13172;DHT22;6651;53.200;10.432;2023-10-09T06:50:15;10.40;99.90
13172;DHT22;6651;53.200;10.432;2023-10-09T06:52:53;10.30;99.90
13172;DHT22;6651;53.200;10.432;2023-10-09T06:55:38;10.40;99.90
13172;DHT22;6651;53.200;10.432;2023-10-09T06:58:26;10.40;99.90
13172;DHT22;6651;53.200;10.432;2023-10-09T07:00:53;10.50;99.90
13172;DHT22;6651;53.200;10.432;2023-10-09T07:03:38;10.40;99.90
13172;DHT22;6651;53.200;10.432;2023-10-09T07:06:18;10.50;99.90
13172;DHT22;6651;53.200;10.432;2023-10-09T07:08:53;10.50;99.90
13172;DHT22;6651;53.200;10.432;2023-10-09T07:11:41;10.40;99.90
13172;DHT22;6651;53.200;10.432;2023-10-09T07:14:08;10.50;99.90
13172;DHT22;6651;53.200;10.432;2023-10-09T07:16:53;10.50;99.90
13172;DHT22;6651;53.200;10.432;2023-10-09T07:19:31;10.40;99.90
13172;DHT22;6651;53.200;10.432;2023-10-09T07:22:03;10.40;99.90
13172;DHT22;6651;53.200;10.432;2023-10-09T07:24:30;10.40;99.90
13172;DHT22;6651;53.200;10.432;2023-10-09T07:27:11;10.40;99.90
13172;DHT22;6651;53.200;10.432;2023-10-09T07:29:41;10.40;99.90
13172;DHT22;6651;53.200;10.432;2023-10-09T07:32:16;10.40;99.90
13172;DHT22;6651;53.200;10.432;2023-10-09T07:34:48;10.50;99.90
13172;DHT22;6651;53.200;10.432;2023-10-09T07:37:25;10.50;99.90
13172;DHT22;6651;53.200;10.432;2023-10-09T07:39:56;10.50;99.90
13172;DHT22;6651;53.200;10.432;2023-10-09T07:42:27;10.50;99.90
13172;DHT22;6651;53.200;10.432;2023-10-09T07:45:09;10.50;99.90
13172;DHT22;6651;53.200;10.432;2023-10-09T07:47:59;10.50;99.90
13172;DHT22;6651;53.200;10.432;2023-10-09T07:50:25;10.60;99.90
13172;DHT22;6651;53.200;10.432;2023-10-09T07:52:57;10.60;99.90
13172;DHT22;6651;53.200;10.432;2023-10-09T07:55:40;10.60;99.90
13172;DHT22;6651;53.200;10.432;2023-10-09T07:58:11;10.50;99.90
13172;DHT22;6651;53.200;10.432;2023-10-09T08:00:37;10.60;99.90
13172;DHT22;6651;53.200;10.432;2023-10-09T08:03:24;10.50;99.90
13172;DHT22;6651;53.200;10.432;2023-10-09T08:05:52;10.60;99.90
13172;DHT22;6651;53.200;10.432;2023-10-09T08:08:32;10.70;99.90
13172;DHT22;6651;53.200;10.432;2023-10-09T08:10:58;10.80;99.90
13172;DHT22;6651;53.200;10.432;2023-10-09T08:13:44;10.80;99.90
13172;DHT22;6651;53.200;10.432;2023-10-09T08:16:15;10.70;99.90
13172;DHT22;6651;53.200;10.432;2023-10-09T08:18:47;10.70;99.90
13172;DHT22;6651;53.200;10.432;2023-10-09T08:21:18;10.70;99.90
13172;DHT22;6651;53.200;10.432;2023-10-09T08:23:45;10.70;99.90
13172;DHT22;6651;53.200;10.432;2023-10-09T08:26:14;10.70;99.90
13172;DHT22;6651;53.200;10.432;2023-10-09T08:28:44;10.70;99.90
13172;DHT22;6651;53.200;10.432;2023-10-09T08:31:16;10.80;99.90
13172;DHT22;6651;53.200;10.432;2023-10-09T08:34:00;10.80;99.90
13172;DHT22;6651;53.200;10.432;2023-10-09T08:36:27;10.80;99.90
13172;DHT22;6651;53.200;10.432;2023-10-09T08:39:02;10.90;99.90
13172;DHT22;6651;53.200;10.432;2023-10-09T08:41:42;11.00;99.90
13172;DHT22;6651;53.200;10.432;2023-10-09T08:44:12;11.00;99.90
13172;DHT22;6651;53.200;10.432;2023-10-09T08:46:40;11.00;99.90
13172;DHT22;6651;53.200;10.432;2023-10-09T08:49:08;11.00;99.90
13172;DHT22;6651;53.200;10.432;2023-10-09T08:51:35;11.00;99.90
13172;DHT22;6651;53.200;10.432;2023-10-09T08:54:01;11.00;99.90
13172;DHT22;6651;53.200;10.432;2023-10-09T08:56:27;11.00;99.90
13172;DHT22;6651;53.200;10.432;2023-10-09T08:58:55;11.00;99.90
13172;DHT22;6651;53.200;10.432;2023-10-09T09:01:22;11.00;99.90
13172;DHT22;6651;53.200;10.432;2023-10-09T09:03:49;11.10;99.90
13172;DHT22;6651;53.200;10.432;2023-10-09T09:06:19;11.20;99.90
13172;DHT22;6651;53.200;10.432;2023-10-09T09:08:45;11.20;99.90
13172;DHT22;6651;53.200;10.432;2023-10-09T09:11:13;11.20;99.90
13172;DHT22;6651;53.200;10.432;2023-10-09T09:16:25;11.30;99.90
13172;DHT22;6651;53.200;10.432;2023-10-09T09:21:29;11.40;99.90
13172;DHT22;6651;53.200;10.432;2023-10-09T09:23:56;11.50;99.90
13172;DHT22;6651;53.200;10.432;2023-10-09T09:26:38;11.50;99.90
13172;DHT22;6651;53.200;10.432;2023-10-09T09:29:11;11.50;99.90
13172;DHT22;6651;53.200;10.432;2023-10-09T09:31:37;11.50;99.90
13172;DHT22;6651;53.200;10.432;2023-10-09T09:34:07;11.50;99.90
13172;DHT22;6651;53.200;10.432;2023-10-09T09:36:58;11.50;99.90
13172;DHT22;6651;53.200;10.432;2023-10-09T09:39:27;11.50;99.90
13172;DHT22;6651;53.200;10.432;2023-10-09T09:41:58;11.50;99.90
13172;DHT22;6651;53.200;10.432;2023-10-09T09:44:33;11.50;99.90
13172;DHT22;6651;53.200;10.432;2023-10-09T09:47:09;11.50;99.90
13172;DHT22;6651;53.200;10.432;2023-10-09T09:49:41;11.50;99.90
13172;DHT22;6651;53.200;10.432;2023-10-09T09:52:08;11.50;99.90
13172;DHT22;6651;53.200;10.432;2023-10-09T09:54:36;11.50;99.90
13172;DHT22;6651;53.200;10.432;2023-10-09T09:57:04;11.50;99.90
13172;DHT22;6651;53.200;10.432;2023-10-09T09:59:39;11.60;99.90
13172;DHT22;6651;53.200;10.432;2023-10-09T10:02:20;11.70;99.90
13172;DHT22;6651;53.200;10.432;2023-10-09T10:04:47;11.70;99.90
13172;DHT22;6651;53.200;10.432;2023-10-09T10:07:16;11.70;99.90
13172;DHT22;6651;53.200;10.432;2023-10-09T10:09:43;11.60;99.90
13172;DHT22;6651;53.200;10.432;2023-10-09T10:12:11;11.60;99.90
13172;DHT22;6651;53.200;10.432;2023-10-09T10:14:56;11.60;99.90
13172;DHT22;6651;53.200;10.432;2023-10-09T10:17:25;11.70;99.90
13172;DHT22;6651;53.200;10.432;2023-10-09T10:20:00;11.70;99.90
13172;DHT22;6651;53.200;10.432;2023-10-09T10:22:30;11.70;99.90
13172;DHT22;6651;53.200;10.432;2023-10-09T10:24:57;11.70;99.90
13172;DHT22;6651;53.200;10.432;2023-10-09T10:27:35;11.70;99.90
13172;DHT22;6651;53.200;10.432;2023-10-09T10:32:58;11.70;99.90
13172;DHT22;6651;53.200;10.432;2023-10-09T10:35:34;11.70;99.90
13172;DHT22;6651;53.200;10.432;2023-10-09T10:38:24;11.70;99.90
13172;DHT22;6651;53.200;10.432;2023-10-09T10:40:50;11.70;99.90
13172;DHT22;6651;53.200;10.432;2023-10-09T10:43:23;11.80;99.90
13172;DHT22;6651;53.200;10.432;2023-10-09T10:46:05;11.90;99.90
13172;DHT22;6651;53.200;10.432;2023-10-09T10:48:53;11.90;99.90
13172;DHT22;6651;53.200;10.432;2023-10-09T10:51:34;11.90;99.90
13172;DHT22;6651;53.200;10.432;2023-10-09T10:54:04;12.00;99.90
13172;DHT22;6651;53.200;10.432;2023-10-09T10:56:56;11.90;99.90
13172;DHT22;6651;53.200;10.432;2023-10-09T10:59:23;12.00;99.90
13172;DHT22;6651;53.200;10.432;2023-10-09T11:01:50;12.00;99.90
13172;DHT22;6651;53.200;10.432;2023-10-09T11:04:26;12.00;99.90
13172;DHT22;6651;53.200;10.432;2023-10-09T11:06:59;12.00;99.90
13172;DHT22;6651;53.200;10.432;2023-10-09T11:09:58;12.10;99.90
13172;DHT22;6651;53.200;10.432;2023-10-09T11:15:16;12.10;99.90
13172;DHT22;6651;53.200;10.432;2023-10-09T11:18:08;12.10;99.90
13172;DHT22;6651;53.200;10.432;2023-10-09T11:20:34;12.20;99.90
13172;DHT22;6651;53.200;10.432;2023-10-09T11:23:02;12.30;99.90
13172;DHT22;6651;53.200;10.432;2023-10-09T11:25:42;12.30;99.90
13172;DHT22;6651;53.200;10.432;2023-10-09T11:28:22;12.30;99.90
13172;DHT22;6651;53.200;10.432;2023-10-09T11:31:13;12.30;99.90
13172;DHT22;6651;53.200;10.432;2023-10-09T11:33:49;12.20;99.90
13172;DHT22;6651;53.200;10.432;2023-10-09T11:36:17;12.30;99.90
13172;DHT22;6651;53.200;10.432;2023-10-09T11:38:43;12.30;99.90
13172;DHT22;6651;53.200;10.432;2023-10-09T11:41:15;12.30;99.90
13172;DHT22;6651;53.200;10.432;2023-10-09T11:43:53;12.40;99.90
13172;DHT22;6651;53.200;10.432;2023-10-09T11:46:21;12.30;99.90
13172;DHT22;6651;53.200;10.432;2023-10-09T11:49:06;12.40;99.90
13172;DHT22;6651;53.200;10.432;2023-10-09T11:51:47;12.40;99.90
13172;DHT22;6651;53.200;10.432;2023-10-09T11:54:32;12.40;99.90
13172;DHT22;6651;53.200;10.432;2023-10-09T11:56:59;12.50;99.90
13172;DHT22;6651;53.200;10.432;2023-10-09T11:59:27;12.50;99.90
13172;DHT22;6651;53.200;10.432;2023-10-09T12:01:53;12.60;99.90
13172;DHT22;6651;53.200;10.432;2023-10-09T12:04:20;12.60;99.90
13172;DHT22;6651;53.200;10.432;2023-10-09T12:06:55;12.60;99.90
13172;DHT22;6651;53.200;10.432;2023-10-09T12:09:32;12.60;99.90
13172;DHT22;6651;53.200;10.432;2023-10-09T12:12:00;12.60;99.90
13172;DHT22;6651;53.200;10.432;2023-10-09T12:14:26;12.60;99.90
13172;DHT22;6651;53.200;10.432;2023-10-09T12:16:59;12.60;99.90
13172;DHT22;6651;53.200;10.432;2023-10-09T12:19:34;12.60;99.90
13172;DHT22;6651;53.200;10.432;2023-10-09T12:22:07;12.60;99.90
13172;DHT22;6651;53.200;10.432;2023-10-09T12:24:36;12.50;99.90
13172;DHT22;6651;53.200;10.432;2023-10-09T12:27:03;12.60;99.90
13172;DHT22;6651;53.200;10.432;2023-10-09T12:29:35;12.50;99.90
13172;DHT22;6651;53.200;10.432;2023-10-09T12:32:00;12.60;99.90
13172;DHT22;6651;53.200;10.432;2023-10-09T12:34:28;12.60;99.90
13172;DHT22;6651;53.200;10.432;2023-10-09T12:36:56;12.60;99.90
13172;DHT22;6651;53.200;10.432;2023-10-09T12:39:26;12.60;99.90
13172;DHT22;6651;53.200;10.432;2023-10-09T12:41:56;12.60;99.90
13172;DHT22;6651;53.200;10.432;2023-10-09T12:44:24;12.70;99.90
13172;DHT22;6651;53.200;10.432;2023-10-09T12:46:52;12.70;99.90
13172;DHT22;6651;53.200;10.432;2023-10-09T12:49:21;12.80;99.90
13172;DHT22;6651;53.200;10.432;2023-10-09T12:51:54;12.80;99.90
13172;DHT22;6651;53.200;10.432;2023-10-09T12:54:19;12.90;99.90
13172;DHT22;6651;53.200;10.432;2023-10-09T12:56:56;12.90;99.90
13172;DHT22;6651;53.200;10.432;2023-10-09T12:59:23;13.00;99.90
13172;DHT22;6651;53.200;10.432;2023-10-09T13:01:49;13.00;99.90
13172;DHT22;6651;53.200;10.432;2023-10-09T13:04:19;13.00;99.90
13172;DHT22;6651;53.200;10.432;2023-10-09T13:06:48;13.00;99.90
13172;DHT22;6651;53.200;10.432;2023-10-09T13:09:17;13.10;99.90
13172;DHT22;6651;53.200;10.432;2023-10-09T13:12:12;13.10;99.90
13172;DHT22;6651;53.200;10.432;2023-10-09T13:14:43;13.10;99.90
13172;DHT22;6651;53.200;10.432;2023-10-09T13:17:12;13.10;99.90
13172;DHT22;6651;53.200;10.432;2023-10-09T13:19:38;13.10;99.90
13172;DHT22;6651;53.200;10.432;2023-10-09T13:22:04;13.20;99.90
13172;DHT22;6651;53.200;10.432;2023-10-09T13:24:38;13.20;99.90
13172;DHT22;6651;53.200;10.432;2023-10-09T13:27:04;13.10;99.90
13172;DHT22;6651;53.200;10.432;2023-10-09T13:29:30;13.10;99.90
13172;DHT22;6651;53.200;10.432;2023-10-09T13:31:59;13.10;99.90
13172;DHT22;6651;53.200;10.432;2023-10-09T13:34:28;13.10;99.90
13172;DHT22;6651;53.200;10.432;2023-10-09T13:36:54;13.10;99.90
13172;DHT22;6651;53.200;10.432;2023-10-09T13:39:21;13.10;99.90
13172;DHT22;6651;53.200;10.432;2023-10-09T13:41:54;13.20;99.90
13172;DHT22;6651;53.200;10.432;2023-10-09T13:44:30;13.20;99.90
13172;DHT22;6651;53.200;10.432;2023-10-09T13:46:58;13.30;99.90
13172;DHT22;6651;53.200;10.432;2023-10-09T13:49:24;13.30;99.90
13172;DHT22;6651;53.200;10.432;2023-10-09T13:51:56;13.40;99.90
13172;DHT22;6651;53.200;10.432;2023-10-09T13:54:26;13.40;99.90
13172;DHT22;6651;53.200;10.432;2023-10-09T13:57:01;13.40;99.90
13172;DHT22;6651;53.200;10.432;2023-10-09T13:59:29;13.40;99.90
13172;DHT22;6651;53.200;10.432;2023-10-09T14:01:56;13.40;99.90
13172;DHT22;6651;53.200;10.432;2023-10-09T14:04:22;13.40;99.90
13172;DHT22;6651;53.200;10.432;2023-10-09T14:06:49;13.40;99.90
13172;DHT22;6651;53.200;10.432;2023-10-09T14:09:15;13.40;99.90
13172;DHT22;6651;53.200;10.432;2023-10-09T14:12:00;13.40;99.90
13172;DHT22;6651;53.200;10.432;2023-10-09T14:14:40;13.40;99.90
13172;DHT22;6651;53.200;10.432;2023-10-09T14:17:13;13.50;99.90
13172;DHT22;6651;53.200;10.432;2023-10-09T14:19:42;13.50;99.90
13172;DHT22;6651;53.200;10.432;2023-10-09T14:22:18;13.50;99.90
13172;DHT22;6651;53.200;10.432;2023-10-09T14:24:45;13.50;99.90
13172;DHT22;6651;53.200;10.432;2023-10-09T14:27:14;13.50;99.90
13172;DHT22;6651;53.200;10.432;2023-10-09T14:29:47;13.60;99.90
13172;DHT22;6651;53.200;10.432;2023-10-09T14:32:13;13.60;99.90
13172;DHT22;6651;53.200;10.432;2023-10-09T14:34:40;13.70;99.90
13172;DHT22;6651;53.200;10.432;2023-10-09T14:37:11;13.70;99.90
13172;DHT22;6651;53.200;10.432;2023-10-09T14:39:43;13.70;99.90
13172;DHT22;6651;53.200;10.432;2023-10-09T14:42:16;13.70;99.90
13172;DHT22;6651;53.200;10.432;2023-10-09T14:44:43;13.70;99.90
13172;DHT22;6651;53.200;10.432;2023-10-09T14:47:11;13.70;99.90
13172;DHT22;6651;53.200;10.432;2023-10-09T14:49:36;13.70;99.90
13172;DHT22;6651;53.200;10.432;2023-10-09T14:52:04;13.70;99.90
13172;DHT22;6651;53.200;10.432;2023-10-09T14:54:36;13.70;99.90
13172;DHT22;6651;53.200;10.432;2023-10-09T14:57:03;13.70;99.90
13172;DHT22;6651;53.200;10.432;2023-10-09T14:59:32;13.70;99.90
13172;DHT22;6651;53.200;10.432;2023-10-09T15:01:58;13.80;99.90
13172;DHT22;6651;53.200;10.432;2023-10-09T15:04:25;13.80;99.90
13172;DHT22;6651;53.200;10.432;2023-10-09T15:06:53;13.80;99.90
13172;DHT22;6651;53.200;10.432;2023-10-09T15:09:19;13.90;99.90
13172;DHT22;6651;53.200;10.432;2023-10-09T15:11:51;13.90;99.90
13172;DHT22;6651;53.200;10.432;2023-10-09T15:14:17;13.90;99.90
13172;DHT22;6651;53.200;10.432;2023-10-09T15:16:49;13.80;99.90
13172;DHT22;6651;53.200;10.432;2023-10-09T15:19:16;13.80;99.90
13172;DHT22;6651;53.200;10.432;2023-10-09T15:21:42;13.90;99.90
13172;DHT22;6651;53.200;10.432;2023-10-09T15:26:47;13.90;99.90
13172;DHT22;6651;53.200;10.432;2023-10-09T15:29:23;14.00;99.90
13172;DHT22;6651;53.200;10.432;2023-10-09T15:31:54;13.90;99.90
13172;DHT22;6651;53.200;10.432;2023-10-09T15:34:20;13.90;99.90
13172;DHT22;6651;53.200;10.432;2023-10-09T15:36:47;14.00;99.90
13172;DHT22;6651;53.200;10.432;2023-10-09T15:39:13;14.00;99.90
13172;DHT22;6651;53.200;10.432;2023-10-09T15:41:39;14.00;99.90
13172;DHT22;6651;53.200;10.432;2023-10-09T15:44:08;14.00;99.90
13172;DHT22;6651;53.200;10.432;2023-10-09T15:46:33;14.00;99.90
13172;DHT22;6651;53.200;10.432;2023-10-09T15:49:00;14.00;99.90
13172;DHT22;6651;53.200;10.432;2023-10-09T15:51:29;14.00;99.90
13172;DHT22;6651;53.200;10.432;2023-10-09T15:53:56;14.00;99.90
13172;DHT22;6651;53.200;10.432;2023-10-09T15:56:22;14.00;99.90
13172;DHT22;6651;53.200;10.432;2023-10-09T15:58:48;14.00;99.90
13172;DHT22;6651;53.200;10.432;2023-10-09T16:01:15;14.00;99.90
13172;DHT22;6651;53.200;10.432;2023-10-09T16:03:42;14.00;99.90
13172;DHT22;6651;53.200;10.432;2023-10-09T16:06:11;14.00;99.90
13172;DHT22;6651;53.200;10.432;2023-10-09T16:08:38;14.00;99.90
13172;DHT22;6651;53.200;10.432;2023-10-09T16:11:04;14.00;99.90
13172;DHT22;6651;53.200;10.432;2023-10-09T16:13:30;14.00;99.90
13172;DHT22;6651;53.200;10.432;2023-10-09T16:15:58;14.00;99.90
13172;DHT22;6651;53.200;10.432;2023-10-09T16:18:25;14.00;99.90
13172;DHT22;6651;53.200;10.432;2023-10-09T16:20:53;14.00;99.90
13172;DHT22;6651;53.200;10.432;2023-10-09T16:23:20;14.00;99.90
13172;DHT22;6651;53.200;10.432;2023-10-09T16:25:45;14.00;99.90
13172;DHT22;6651;53.200;10.432;2023-10-09T16:28:11;14.00;99.90
13172;DHT22;6651;53.200;10.432;2023-10-09T16:30:38;14.00;99.90
13172;DHT22;6651;53.200;10.432;2023-10-09T16:33:04;14.00;99.90
13172;DHT22;6651;53.200;10.432;2023-10-09T16:35:30;14.00;99.90
13172;DHT22;6651;53.200;10.432;2023-10-09T16:38:00;14.00;99.90
13172;DHT22;6651;53.200;10.432;2023-10-09T16:40:31;14.00;99.90
13172;DHT22;6651;53.200;10.432;2023-10-09T16:42:57;14.00;99.90
13172;DHT22;6651;53.200;10.432;2023-10-09T16:45:23;14.00;99.90
13172;DHT22;6651;53.200;10.432;2023-10-09T16:47:51;14.00;99.90
13172;DHT22;6651;53.200;10.432;2023-10-09T16:50:20;13.90;99.90
13172;DHT22;6651;53.200;10.432;2023-10-09T16:52:51;13.90;99.90
13172;DHT22;6651;53.200;10.432;2023-10-09T16:55:17;13.90;99.90
13172;DHT22;6651;53.200;10.432;2023-10-09T16:57:45;13.90;99.90
13172;DHT22;6651;53.200;10.432;2023-10-09T17:00:15;13.90;99.90
13172;DHT22;6651;53.200;10.432;2023-10-09T17:03:02;14.00;99.90
13172;DHT22;6651;53.200;10.432;2023-10-09T17:05:35;14.00;99.90
13172;DHT22;6651;53.200;10.432;2023-10-09T17:08:21;14.20;99.90
13172;DHT22;6651;53.200;10.432;2023-10-09T17:10:48;14.30;99.90
13172;DHT22;6651;53.200;10.432;2023-10-09T17:13:17;14.40;99.90
13172;DHT22;6651;53.200;10.432;2023-10-09T17:15:47;14.40;99.90
13172;DHT22;6651;53.200;10.432;2023-10-09T17:18:19;14.50;99.90
13172;DHT22;6651;53.200;10.432;2023-10-09T17:20:46;14.50;99.90
13172;DHT22;6651;53.200;10.432;2023-10-09T17:23:14;14.60;99.90
13172;DHT22;6651;53.200;10.432;2023-10-09T17:25:41;14.60;99.90
13172;DHT22;6651;53.200;10.432;2023-10-09T17:28:11;14.60;99.90
13172;DHT22;6651;53.200;10.432;2023-10-09T17:30:46;14.70;99.90
13172;DHT22;6651;53.200;10.432;2023-10-09T17:33:15;14.70;99.90
13172;DHT22;6651;53.200;10.432;2023-10-09T17:35:45;14.70;99.90
13172;DHT22;6651;53.200;10.432;2023-10-09T17:38:11;14.80;99.90
13172;DHT22;6651;53.200;10.432;2023-10-09T17:40:36;14.80;99.90
13172;DHT22;6651;53.200;10.432;2023-10-09T17:43:02;14.80;99.90
13172;DHT22;6651;53.200;10.432;2023-10-09T17:45:31;14.80;99.90
13172;DHT22;6651;53.200;10.432;2023-10-09T17:47:59;14.80;99.90
13172;DHT22;6651;53.200;10.432;2023-10-09T17:50:30;14.80;99.90
13172;DHT22;6651;53.200;10.432;2023-10-09T17:52:56;14.80;99.90
13172;DHT22;6651;53.200;10.432;2023-10-09T17:55:25;14.80;99.90
13172;DHT22;6651;53.200;10.432;2023-10-09T17:57:51;14.80;99.90
13172;DHT22;6651;53.200;10.432;2023-10-09T18:00:16;14.80;99.90
13172;DHT22;6651;53.200;10.432;2023-10-09T18:02:49;14.80;99.90
13172;DHT22;6651;53.200;10.432;2023-10-09T18:05:14;14.90;99.90
13172;DHT22;6651;53.200;10.432;2023-10-09T18:07:40;14.90;99.90
13172;DHT22;6651;53.200;10.432;2023-10-09T18:10:09;14.90;99.90
13172;DHT22;6651;53.200;10.432;2023-10-09T18:12:35;14.90;99.90
13172;DHT22;6651;53.200;10.432;2023-10-09T18:15:02;14.90;99.90
13172;DHT22;6651;53.200;10.432;2023-10-09T18:17:31;14.90;99.90
13172;DHT22;6651;53.200;10.432;2023-10-09T18:20:00;15.00;99.90
13172;DHT22;6651;53.200;10.432;2023-10-09T18:22:26;14.90;99.90
13172;DHT22;6651;53.200;10.432;2023-10-09T18:24:54;14.90;99.90
13172;DHT22;6651;53.200;10.432;2023-10-09T18:27:20;14.90;99.90
13172;DHT22;6651;53.200;10.432;2023-10-09T18:29:47;14.90;99.90
13172;DHT22;6651;53.200;10.432;2023-10-09T18:32:17;14.90;99.90
13172;DHT22;6651;53.200;10.432;2023-10-09T18:34:43;14.90;99.90
13172;DHT22;6651;53.200;10.432;2023-10-09T18:37:09;14.90;99.90
13172;DHT22;6651;53.200;10.432;2023-10-09T18:39:34;14.80;99.90
13172;DHT22;6651;53.200;10.432;2023-10-09T18:42:05;14.80;99.90
13172;DHT22;6651;53.200;10.432;2023-10-09T18:44:32;14.70;99.90
13172;DHT22;6651;53.200;10.432;2023-10-09T18:46:58;14.70;99.90